createdAt,value
2019-06-20T00:01:33.745Z,64.70
2019-06-20T00:04:00.198Z,63.60
2019-06-20T00:06:26.727Z,63.40
2019-06-20T00:08:53.163Z,63.20
2019-06-20T00:11:19.538Z,63.00
2019-06-20T00:13:46.091Z,63.30
2019-06-20T00:16:12.361Z,63.60
2019-06-20T00:18:38.829Z,63.10
2019-06-20T00:21:05.222Z,61.90
2019-06-20T00:23:31.420Z,61.90
2019-06-20T00:25:57.647Z,61.50
2019-06-20T00:28:23.909Z,61.00
2019-06-20T00:30:50.245Z,60.80
2019-06-20T00:33:16.494Z,60.50
2019-06-20T00:35:42.706Z,60.40
2019-06-20T00:38:08.958Z,60.30
2019-06-20T00:40:35.202Z,60.20
2019-06-20T00:43:16.295Z,60.50
2019-06-20T00:45:29.586Z,59.50
2019-06-20T00:47:55.889Z,59.30
2019-06-20T00:50:22.119Z,59.60
2019-06-20T00:52:48.401Z,59.30
2019-06-20T00:55:14.634Z,58.70
2019-06-20T00:57:40.884Z,58.50
2019-06-20T01:00:08.639Z,58.30
2019-06-20T01:02:35.054Z,58.60
2019-06-20T01:05:01.535Z,58.80
2019-06-20T01:07:27.769Z,58.60
2019-06-20T01:09:54.062Z,58.40
2019-06-20T01:12:20.565Z,58.60
2019-06-20T01:14:46.917Z,58.70
2019-06-20T01:17:13.299Z,59.00
2019-06-20T01:19:39.553Z,59.30
2019-06-20T01:22:05.819Z,59.40
2019-06-20T01:24:32.064Z,59.40
2019-06-20T01:27:36.759Z,59.00
2019-06-20T01:30:07.007Z,58.90
2019-06-20T01:32:33.264Z,58.90
2019-06-20T01:34:59.538Z,58.60
2019-06-20T01:37:25.829Z,58.30
2019-06-20T01:39:52.151Z,58.90
2019-06-20T01:42:18.408Z,58.60
2019-06-20T01:44:44.671Z,58.40
2019-06-20T01:47:10.915Z,59.50
2019-06-20T01:49:37.155Z,58.50
2019-06-20T01:52:03.816Z,58.50
2019-06-20T01:54:30.284Z,58.60
2019-06-20T01:56:56.515Z,58.80
2019-06-20T01:59:22.881Z,58.80
2019-06-20T02:01:49.372Z,58.90
2019-06-20T02:04:15.622Z,59.40
2019-06-20T02:06:42.052Z,59.80
2019-06-20T02:09:08.495Z,60.40
2019-06-20T02:11:35.133Z,62.30
2019-06-20T02:14:07.089Z,61.50
2019-06-20T02:16:29.837Z,62.40
2019-06-20T02:18:56.079Z,64.10
2019-06-20T02:21:22.502Z,66.20
2019-06-20T02:23:48.775Z,69.60
2019-06-20T02:26:15.022Z,70.40
2019-06-20T02:28:41.293Z,71.10
2019-06-20T02:31:07.656Z,72.30
2019-06-20T02:33:34.146Z,73.30
2019-06-20T02:36:00.615Z,73.30
2019-06-20T02:38:26.876Z,73.60
2019-06-20T02:40:53.199Z,74.10
2019-06-20T02:43:19.434Z,74.60
2019-06-20T02:45:45.766Z,74.50
2019-06-20T02:48:12.085Z,74.90
2019-06-20T02:50:38.475Z,74.70
2019-06-20T02:53:04.891Z,74.40
2019-06-20T02:55:31.491Z,74.20
2019-06-20T02:57:57.724Z,74.40
2019-06-20T03:00:38.520Z,75.30
2019-06-20T03:03:04.835Z,75.60
2019-06-20T03:05:31.091Z,75.90
2019-06-20T03:07:57.349Z,77.30
2019-06-20T03:10:23.823Z,77.40
2019-06-20T03:12:50.059Z,78.00
2019-06-20T03:15:16.637Z,79.00
2019-06-20T03:17:42.895Z,79.10
2019-06-20T03:20:10.222Z,79.30
2019-06-20T03:22:36.581Z,79.20
2019-06-20T03:25:04.226Z,79.00
2019-06-20T03:27:30.485Z,78.70
2019-06-20T03:29:56.733Z,78.40
2019-06-20T03:32:23.122Z,78.10
2019-06-20T03:34:49.369Z,78.00
2019-06-20T03:37:15.676Z,77.80
2019-06-20T03:39:41.950Z,77.30
2019-06-20T03:42:08.225Z,77.40
2019-06-20T03:44:34.431Z,77.70
2019-06-20T03:47:00.690Z,77.50
2019-06-20T03:49:27.188Z,77.90
2019-06-20T03:51:53.544Z,78.30
2019-06-20T03:54:19.795Z,79.10
2019-06-20T03:56:46.054Z,79.60
2019-06-20T03:59:12.287Z,80.10
2019-06-20T04:01:38.541Z,80.40
2019-06-20T04:04:04.771Z,80.80
2019-06-20T04:06:31.052Z,81.30
2019-06-20T04:08:57.279Z,81.40
2019-06-20T04:11:23.558Z,81.50
2019-06-20T04:13:49.825Z,82.00
2019-06-20T04:16:16.088Z,83.00
2019-06-20T04:18:42.327Z,83.20
2019-06-20T04:21:08.571Z,83.40
2019-06-20T04:23:34.843Z,83.20
2019-06-20T04:26:01.216Z,83.20
2019-06-20T04:28:27.832Z,83.20
2019-06-20T04:30:54.086Z,83.80
2019-06-20T04:33:20.370Z,83.60
2019-06-20T04:35:46.594Z,83.60
2019-06-20T04:38:13.065Z,83.10
2019-06-20T04:40:39.443Z,82.70
2019-06-20T04:43:05.704Z,82.60
2019-06-20T04:45:35.411Z,82.80
2019-06-20T04:48:02.218Z,82.90
2019-06-20T04:50:28.600Z,82.80
2019-06-20T04:52:54.892Z,83.10
2019-06-20T04:55:21.222Z,82.70
2019-06-20T04:57:47.472Z,81.90
2019-06-20T05:00:14.313Z,82.30
2019-06-20T05:02:40.611Z,82.40
2019-06-20T05:05:07.452Z,81.70
2019-06-20T05:07:33.892Z,81.40
2019-06-20T05:10:00.174Z,81.50
2019-06-20T05:12:26.404Z,81.60
2019-06-20T05:14:52.641Z,81.70
2019-06-20T05:17:18.894Z,81.70
2019-06-20T05:19:45.328Z,81.10
2019-06-20T05:22:11.594Z,80.80
2019-06-20T05:24:38.030Z,80.30
2019-06-20T05:27:04.238Z,80.10
2019-06-20T05:29:30.489Z,79.80
2019-06-20T05:31:56.751Z,79.30
2019-06-20T05:34:24.336Z,79.00
2019-06-20T05:36:51.021Z,78.60
2019-06-20T05:39:17.557Z,77.30
2019-06-20T05:41:45.108Z,77.60
2019-06-20T05:44:11.388Z,77.70
2019-06-20T05:46:37.744Z,77.80
2019-06-20T05:49:04.733Z,77.20
2019-06-20T05:51:31.234Z,77.50
2019-06-20T05:53:59.744Z,77.70
2019-06-20T05:56:38.974Z,78.00
2019-06-20T05:58:56.916Z,78.50
2019-06-20T06:01:26.384Z,77.80
2019-06-20T06:03:53.067Z,77.40
2019-06-20T06:06:26.639Z,77.10
2019-06-20T06:09:01.863Z,75.70
2019-06-20T06:11:28.269Z,74.40
2019-06-20T06:13:54.630Z,73.60
2019-06-20T06:16:34.039Z,74.40
2019-06-20T06:19:04.589Z,74.40
2019-06-20T06:21:32.709Z,77.30
2019-06-20T06:23:59.051Z,74.80
2019-06-20T06:26:25.306Z,74.60
2019-06-20T06:28:51.573Z,73.40
2019-06-20T06:31:17.818Z,73.10
2019-06-20T06:33:44.051Z,74.50
2019-06-20T06:36:10.295Z,74.40
2019-06-20T06:38:36.536Z,73.90
2019-06-20T06:41:03.158Z,73.70
2019-06-20T06:43:29.409Z,73.90
2019-06-20T06:45:55.887Z,74.30
2019-06-20T06:48:22.125Z,74.50
2019-06-20T06:50:48.364Z,73.40
2019-06-20T06:53:14.637Z,72.70
2019-06-20T06:55:40.886Z,72.10
2019-06-20T06:58:07.147Z,72.60
2019-06-20T07:00:33.462Z,72.60
2019-06-20T07:02:59.730Z,71.90
2019-06-20T07:05:26.288Z,72.40
2019-06-20T07:07:52.521Z,72.50
2019-06-20T07:10:19.357Z,72.20
2019-06-20T07:12:45.645Z,71.00
2019-06-20T07:15:14.677Z,70.90
2019-06-20T07:17:41.143Z,68.80
2019-06-20T07:20:08.730Z,65.80
2019-06-20T07:22:35.080Z,65.60
2019-06-20T07:25:02.507Z,61.70
2019-06-20T07:27:28.902Z,60.50
2019-06-20T07:29:55.145Z,62.10
2019-06-20T07:32:21.367Z,61.10
2019-06-20T07:34:48.110Z,60.00
2019-06-20T07:37:14.608Z,60.00
2019-06-20T07:39:40.837Z,59.10
2019-06-20T07:42:07.096Z,58.70
2019-06-20T07:44:33.332Z,59.20
2019-06-20T07:46:59.723Z,58.70
2019-06-20T07:49:26.385Z,58.70
2019-06-20T07:51:52.641Z,57.20
2019-06-20T07:54:19.133Z,55.30
2019-06-20T07:56:45.639Z,54.10
2019-06-20T07:59:12.106Z,52.70
2019-06-20T08:01:39.495Z,52.60
2019-06-20T08:04:07.849Z,54.60
2019-06-20T08:06:34.124Z,53.90
2019-06-20T08:09:00.475Z,54.00
2019-06-20T08:11:27.145Z,52.60
2019-06-20T08:13:53.386Z,53.00
2019-06-20T08:16:19.741Z,52.50
2019-06-20T08:18:45.997Z,51.60
2019-06-20T08:24:32.389Z,49.70
2019-06-20T08:27:00.364Z,50.50
2019-06-20T08:29:26.725Z,49.80
2019-06-20T08:31:52.974Z,50.50
2019-06-20T08:34:19.217Z,48.60
2019-06-20T08:36:45.460Z,49.20
2019-06-20T08:39:11.945Z,50.80
2019-06-20T08:41:38.179Z,49.00
2019-06-20T08:44:06.165Z,48.70
2019-06-20T08:46:33.486Z,48.50
2019-06-20T08:52:36.743Z,52.10
2019-06-20T08:56:14.252Z,54.20
2019-06-20T08:58:55.762Z,54.80
2019-06-20T09:01:23.053Z,55.00
2019-06-20T09:03:50.737Z,56.50
2019-06-20T09:06:16.961Z,57.80
2019-06-20T09:08:43.189Z,57.00
2019-06-20T09:11:09.438Z,57.10
2019-06-20T09:13:36.083Z,57.00
2019-06-20T09:16:03.503Z,56.20
2019-06-20T09:18:30.118Z,56.70
2019-06-20T09:20:58.018Z,57.70
2019-06-20T09:23:24.765Z,56.30
2019-06-20T09:29:22.921Z,57.90
2019-06-20T09:31:53.788Z,59.10
2019-06-20T09:34:21.521Z,56.50
2019-06-20T09:36:47.824Z,53.50
2019-06-20T09:39:14.093Z,53.50
2019-06-20T09:41:40.822Z,53.20
2019-06-20T09:44:09.971Z,51.30
2019-06-20T09:46:40.833Z,51.80
2019-06-20T09:49:07.098Z,51.10
2019-06-20T09:51:34.280Z,51.70
2019-06-20T09:54:00.600Z,50.70
2019-06-20T09:56:27.006Z,52.80
2019-06-20T09:58:53.296Z,51.50
2019-06-20T10:01:19.556Z,50.20
2019-06-20T10:03:46.451Z,49.20
2019-06-20T10:06:14.748Z,47.90
2019-06-20T10:08:46.619Z,49.60
2019-06-20T10:11:14.622Z,47.50
2019-06-20T10:16:28.301Z,48.80
2019-06-20T10:18:56.479Z,47.40
2019-06-20T10:21:23.553Z,47.00
2019-06-20T10:23:53.987Z,45.90
2019-06-20T10:26:22.367Z,45.40
2019-06-20T10:28:53.109Z,46.10
2019-06-20T10:31:20.193Z,46.40
2019-06-20T10:33:46.922Z,46.10
2019-06-20T10:36:13.294Z,46.40
2019-06-20T10:38:40.022Z,45.70
2019-06-20T10:41:06.970Z,47.20
2019-06-20T10:43:33.371Z,48.20
2019-06-20T10:46:04.960Z,47.50
2019-06-20T10:48:31.198Z,48.00
2019-06-20T10:51:18.415Z,49.10
2019-06-20T10:53:45.690Z,50.20
2019-06-20T10:59:25.290Z,52.60
2019-06-20T11:02:28.269Z,54.60
2019-06-20T11:05:07.433Z,55.30
2019-06-20T11:07:42.076Z,56.00
2019-06-20T11:10:12.461Z,57.20
2019-06-20T11:12:47.923Z,57.10
2019-06-20T11:15:13.326Z,57.50
2019-06-20T11:17:41.939Z,57.90
2019-06-20T11:20:11.270Z,58.40
2019-06-20T11:22:41.639Z,58.20
2019-06-20T11:25:09.058Z,57.10
2019-06-20T11:27:37.058Z,56.70
2019-06-20T11:30:12.449Z,56.30
2019-06-20T11:32:50.718Z,56.30
2019-06-20T11:35:14.831Z,55.10
2019-06-20T11:37:42.283Z,54.20
2019-06-20T11:40:11.143Z,54.20
2019-06-20T11:42:38.033Z,54.10
2019-06-20T11:45:06.546Z,55.00
2019-06-20T11:47:34.902Z,55.40
2019-06-20T11:50:01.742Z,55.40
2019-06-20T11:52:28.158Z,55.60
2019-06-20T11:54:54.805Z,54.90
2019-06-20T11:57:21.223Z,55.10
2019-06-20T11:59:47.446Z,55.10
2019-06-20T12:02:13.948Z,54.40
2019-06-20T12:04:41.546Z,52.80
2019-06-20T12:07:08.853Z,52.70
2019-06-20T12:09:36.590Z,52.50
2019-06-20T12:12:03.023Z,53.60
2019-06-20T12:14:29.275Z,54.60
2019-06-20T12:16:56.123Z,54.10
2019-06-20T12:19:22.445Z,54.90
2019-06-20T12:21:49.156Z,54.30
2019-06-20T12:24:15.474Z,54.40
2019-06-20T12:26:42.424Z,54.10
2019-06-20T12:29:08.847Z,53.90
2019-06-20T12:31:35.077Z,55.20
2019-06-20T12:34:01.306Z,55.60
2019-06-20T12:36:27.797Z,53.50
2019-06-20T12:38:54.008Z,51.90
2019-06-20T12:41:20.269Z,51.40
2019-06-20T12:43:46.658Z,51.00
2019-06-20T12:46:12.887Z,51.20
2019-06-20T12:48:39.941Z,50.90
2019-06-20T12:51:07.255Z,50.40
2019-06-20T12:53:33.552Z,51.10
2019-06-20T12:56:00.111Z,51.10
2019-06-20T12:58:26.357Z,49.90
2019-06-20T13:00:52.596Z,50.60
2019-06-20T13:03:18.875Z,51.70
2019-06-20T13:05:45.113Z,53.50
2019-06-20T13:08:13.526Z,52.60
2019-06-20T13:10:40.308Z,53.40
2019-06-20T13:13:06.779Z,54.40
2019-06-20T13:15:46.933Z,54.10
2019-06-20T13:18:13.417Z,54.80
2019-06-20T13:20:40.630Z,55.50
2019-06-20T13:23:07.499Z,55.80
2019-06-20T13:25:33.754Z,56.30
2019-06-20T13:28:00.465Z,57.30
2019-06-20T13:30:26.939Z,58.40
2019-06-20T13:32:53.176Z,58.30
2019-06-20T13:35:19.711Z,59.20
2019-06-20T13:37:47.669Z,58.90
2019-06-20T13:40:15.402Z,58.90
2019-06-20T13:42:44.168Z,59.30
2019-06-20T13:45:24.553Z,59.20
2019-06-20T13:47:51.219Z,58.90
2019-06-20T13:50:18.555Z,58.90
2019-06-20T13:52:49.005Z,58.80
2019-06-20T13:55:15.197Z,59.40
2019-06-20T13:57:42.913Z,59.70
2019-06-20T14:00:11.018Z,60.30
2019-06-20T14:02:38.124Z,61.00
2019-06-20T14:05:05.831Z,61.10
2019-06-20T14:07:32.379Z,61.10
2019-06-20T14:09:59.015Z,61.10
2019-06-20T14:12:25.291Z,61.50
2019-06-20T14:14:52.289Z,61.90
2019-06-20T14:17:18.845Z,62.80
2019-06-20T14:19:46.883Z,63.90
2019-06-20T14:22:13.140Z,66.60
2019-06-20T14:24:39.367Z,67.40
2019-06-20T14:27:05.693Z,71.50
2019-06-20T14:29:32.010Z,75.30
2019-06-20T14:31:58.261Z,76.30
2019-06-20T14:34:24.483Z,76.50
2019-06-20T14:36:52.274Z,79.70
2019-06-20T14:39:19.134Z,83.40
2019-06-20T14:41:46.411Z,86.70
2019-06-20T14:44:12.752Z,88.80
2019-06-20T14:46:39.200Z,90.20
2019-06-20T14:49:05.632Z,91.20
2019-06-20T14:51:32.749Z,91.80
2019-06-20T14:53:59.265Z,92.40
2019-06-20T14:56:25.489Z,93.10
2019-06-20T14:58:51.731Z,93.50
2019-06-20T15:01:17.966Z,93.90
2019-06-20T15:03:45.580Z,94.40
2019-06-20T15:06:12.354Z,94.40
2019-06-20T15:08:38.612Z,94.50
2019-06-20T15:11:05.060Z,94.80
2019-06-20T15:13:31.315Z,94.80
2019-06-20T15:15:57.585Z,94.80
2019-06-20T15:18:24.021Z,94.80
2019-06-20T15:20:51.626Z,94.80
2019-06-20T15:23:18.292Z,94.80
2019-06-20T15:25:45.821Z,94.80
2019-06-20T15:28:14.905Z,94.80
2019-06-20T15:30:41.165Z,94.80
2019-06-20T15:33:10.303Z,94.80
2019-06-20T15:35:35.536Z,94.80
2019-06-20T15:38:02.104Z,94.70
2019-06-20T15:40:28.442Z,94.80
2019-06-20T15:42:55.370Z,94.90
2019-06-20T15:45:23.630Z,94.80
2019-06-20T15:47:49.894Z,94.50
2019-06-20T15:50:16.735Z,94.40
2019-06-20T15:52:43.056Z,94.20
2019-06-20T15:55:09.820Z,94.40
2019-06-20T15:57:36.058Z,94.40
2019-06-20T16:00:09.996Z,94.60
2019-06-20T16:02:36.351Z,94.70
2019-06-20T16:05:07.124Z,94.40
2019-06-20T16:07:33.372Z,94.40
2019-06-20T16:09:59.656Z,94.30
2019-06-20T16:12:25.854Z,94.60
2019-06-20T16:14:52.170Z,94.40
2019-06-20T16:17:18.463Z,94.40
2019-06-20T16:19:44.749Z,94.80
2019-06-20T16:22:10.994Z,94.50
2019-06-20T16:24:37.233Z,94.40
2019-06-20T16:27:03.650Z,94.00
2019-06-20T16:29:29.861Z,93.00
2019-06-20T16:31:56.123Z,93.00
2019-06-20T16:34:22.359Z,93.40
2019-06-20T16:36:48.894Z,93.30
2019-06-20T16:39:15.144Z,92.90
2019-06-20T16:41:41.431Z,92.00
2019-06-20T16:44:07.688Z,91.40
2019-06-20T16:46:34.035Z,91.10
2019-06-20T16:49:00.278Z,91.20
2019-06-20T16:51:26.550Z,90.60
2019-06-20T16:53:52.851Z,91.40
2019-06-20T16:56:19.120Z,91.60
2019-06-20T16:58:45.414Z,91.90
2019-06-20T17:01:11.801Z,91.90
2019-06-20T17:03:41.811Z,91.80
2019-06-20T17:06:06.246Z,91.90
2019-06-20T17:08:32.823Z,91.60
2019-06-20T17:10:59.198Z,91.90
2019-06-20T17:13:25.457Z,91.60
2019-06-20T17:15:51.733Z,91.70
2019-06-20T17:18:18.215Z,91.70
2019-06-20T17:20:44.436Z,91.50
2019-06-20T17:23:10.807Z,91.40
2019-06-20T17:25:37.326Z,91.40
2019-06-20T17:28:04.002Z,90.70
2019-06-20T17:30:30.431Z,91.20
2019-06-20T17:32:56.668Z,91.60
2019-06-20T17:35:23.490Z,91.30
2019-06-20T17:37:49.840Z,91.30
2019-06-20T17:40:17.562Z,91.10
2019-06-20T17:42:44.004Z,91.80
2019-06-20T17:45:13.093Z,91.80
2019-06-20T17:47:39.547Z,91.70
2019-06-20T17:50:09.385Z,91.70
2019-06-20T17:52:35.601Z,91.60
2019-06-20T17:55:04.148Z,91.60
2019-06-20T17:57:30.414Z,91.60
2019-06-20T17:59:56.665Z,91.50
2019-06-20T18:02:22.928Z,91.60
2019-06-20T18:04:49.141Z,91.70
2019-06-20T18:07:15.470Z,91.80
2019-06-20T18:09:41.693Z,91.80
2019-06-20T18:12:07.932Z,91.80
2019-06-20T18:14:34.354Z,91.90
2019-06-20T18:17:00.785Z,92.20
2019-06-20T18:19:27.356Z,92.30
2019-06-20T18:21:53.595Z,92.20
2019-06-20T18:24:20.026Z,92.20
2019-06-20T18:26:46.290Z,92.30
2019-06-20T18:29:14.464Z,92.30
2019-06-20T18:31:42.471Z,92.30
2019-06-20T18:34:09.007Z,92.50
2019-06-20T18:36:35.281Z,92.20
2019-06-20T18:39:01.530Z,92.00
2019-06-20T18:41:27.778Z,92.10
2019-06-20T18:43:54.017Z,92.20
2019-06-20T18:46:20.326Z,92.30
2019-06-20T18:48:46.567Z,92.50
2019-06-20T18:51:12.894Z,92.60
2019-06-20T18:53:50.585Z,92.60
2019-06-20T18:56:16.155Z,92.50
2019-06-20T18:58:42.407Z,92.50
2019-06-20T19:01:08.660Z,92.60
2019-06-20T19:03:34.900Z,92.70
2019-06-20T19:06:01.189Z,92.90
2019-06-20T19:08:27.424Z,92.90
2019-06-20T19:10:53.699Z,92.80
2019-06-20T19:13:19.960Z,92.70
2019-06-20T19:15:46.210Z,92.70
2019-06-20T19:18:12.496Z,92.60
2019-06-20T19:20:38.755Z,92.50
2019-06-20T19:23:05.221Z,92.50
2019-06-20T19:25:31.471Z,92.70
2019-06-20T19:27:57.744Z,93.10
2019-06-20T19:30:44.250Z,92.90
2019-06-20T19:33:10.504Z,93.00
2019-06-20T19:35:36.956Z,93.10
2019-06-20T19:38:03.328Z,93.20
2019-06-20T19:40:35.365Z,93.20
2019-06-20T19:43:01.716Z,93.40
2019-06-20T19:45:27.968Z,93.40
2019-06-20T19:47:54.348Z,93.30
2019-06-20T19:50:21.308Z,93.10
2019-06-20T19:52:47.847Z,93.20
2019-06-20T19:55:15.365Z,93.20
2019-06-20T19:57:41.712Z,92.90
2019-06-20T20:00:10.462Z,93.00
2019-06-20T20:02:36.964Z,92.90
2019-06-20T20:05:18.290Z,92.90
2019-06-20T20:07:35.862Z,92.90
2019-06-20T20:10:06.561Z,92.70
2019-06-20T20:12:33.005Z,92.70
2019-06-20T20:14:59.620Z,92.70
2019-06-20T20:17:26.079Z,92.70
2019-06-20T20:19:52.293Z,92.70
2019-06-20T20:22:18.547Z,92.80
2019-06-20T20:24:44.890Z,93.00
2019-06-20T20:27:11.198Z,93.50
2019-06-20T20:29:37.437Z,93.30
2019-06-20T20:32:04.676Z,93.30
2019-06-20T20:34:31.210Z,93.40
2019-06-20T20:36:57.464Z,93.40
2019-06-20T20:39:23.684Z,93.40
2019-06-20T20:41:49.938Z,93.60
2019-06-20T20:44:16.159Z,93.70
2019-06-20T20:46:44.096Z,93.70
2019-06-20T20:49:10.883Z,93.90
2019-06-20T20:51:37.167Z,94.00
2019-06-20T20:54:03.411Z,94.20
2019-06-20T20:56:29.660Z,94.20
2019-06-20T20:58:55.967Z,94.20
2019-06-20T21:01:29.493Z,94.30
2019-06-20T21:03:55.945Z,94.10
2019-06-20T21:06:22.404Z,94.20
2019-06-20T21:08:48.991Z,94.20
2019-06-20T21:11:15.234Z,94.30
2019-06-20T21:13:41.505Z,94.30
2019-06-20T21:16:07.829Z,94.60
2019-06-20T21:18:34.397Z,94.30
2019-06-20T21:21:00.654Z,94.30
2019-06-20T21:23:26.942Z,94.30
2019-06-20T21:26:13.047Z,94.30
2019-06-20T21:28:39.291Z,94.20
2019-06-20T21:31:05.633Z,94.30
2019-06-20T21:33:31.875Z,94.40
2019-06-20T21:36:07.976Z,94.40
2019-06-20T21:38:26.360Z,94.40
2019-06-20T21:40:52.629Z,94.50
2019-06-20T21:43:18.865Z,94.50
2019-06-20T21:45:45.220Z,94.50
2019-06-20T21:48:13.369Z,94.50
2019-06-20T21:50:39.698Z,94.50
2019-06-20T21:53:05.957Z,94.50
2019-06-20T21:55:32.253Z,94.50
2019-06-20T21:57:58.694Z,94.50
2019-06-20T22:00:37.963Z,94.40
2019-06-20T22:03:04.844Z,94.50
2019-06-20T22:05:31.070Z,94.60
2019-06-20T22:07:57.712Z,94.70
2019-06-20T22:10:24.309Z,94.70
2019-06-20T22:12:50.585Z,94.80
2019-06-20T22:15:17.465Z,94.90
2019-06-20T22:17:44.028Z,94.90
2019-06-20T22:20:11.935Z,95.00
2019-06-20T22:22:38.172Z,95.10
2019-06-20T22:25:07.793Z,95.10
2019-06-20T22:27:34.602Z,95.20
2019-06-20T22:30:03.665Z,95.20
2019-06-20T22:32:29.234Z,95.20
2019-06-20T22:34:55.528Z,94.90
2019-06-20T22:37:21.783Z,95.10
2019-06-20T22:39:48.042Z,95.10
2019-06-20T22:42:14.295Z,95.10
2019-06-20T22:44:40.546Z,95.10
2019-06-20T22:47:06.780Z,95.10
2019-06-20T22:49:33.042Z,95.20
2019-06-20T22:51:59.297Z,95.20
2019-06-20T22:54:25.583Z,95.20
2019-06-20T22:56:51.823Z,95.20
2019-06-20T22:59:18.062Z,95.20
2019-06-20T23:01:44.278Z,95.30
2019-06-20T23:04:10.515Z,95.30
2019-06-20T23:06:37.045Z,95.40
2019-06-20T23:09:06.198Z,95.30
2019-06-20T23:11:32.527Z,95.40
2019-06-20T23:13:58.774Z,95.40
2019-06-20T23:16:25.031Z,95.50
2019-06-20T23:18:51.493Z,95.50
2019-06-20T23:21:17.742Z,95.60
2019-06-20T23:23:44.005Z,95.70
2019-06-20T23:26:11.768Z,95.60
2019-06-20T23:28:37.993Z,95.60
2019-06-20T23:31:04.521Z,95.60
2019-06-20T23:33:30.767Z,95.60
2019-06-20T23:35:56.999Z,95.70
2019-06-20T23:38:23.562Z,95.70
2019-06-20T23:40:49.816Z,95.60
2019-06-20T23:43:16.080Z,95.70
2019-06-20T23:45:42.295Z,95.60
2019-06-20T23:48:08.544Z,95.50
2019-06-20T23:50:34.948Z,95.60
2019-06-20T23:53:03.159Z,95.50
2019-06-20T23:55:30.889Z,95.40
2019-06-20T23:57:57.134Z,95.30
